sensor_id;sensor_type;location;lat;lon;timestamp;temperature;humidity
25877;DHT22;13692;47.480;19.216;2023-08-24T00:01:58;23.70;99.90
25877;DHT22;13692;47.480;19.216;2023-08-24T00:04:25;23.80;99.90
25877;DHT22;13692;47.480;19.216;2023-08-24T00:06:52;23.70;99.90
25877;DHT22;13692;47.480;19.216;2023-08-24T00:09:20;23.70;99.90
25877;DHT22;13692;47.480;19.216;2023-08-24T00:11:47;23.70;99.90
25877;DHT22;13692;47.480;19.216;2023-08-24T00:14:14;23.60;99.90
25877;DHT22;13692;47.480;19.216;2023-08-24T00:16:41;23.60;99.90
25877;DHT22;13692;47.480;19.216;2023-08-24T00:19:08;23.50;99.90
25877;DHT22;13692;47.480;19.216;2023-08-24T00:21:35;23.40;99.90
25877;DHT22;13692;47.480;19.216;2023-08-24T00:24:02;23.40;99.90
25877;DHT22;13692;47.480;19.216;2023-08-24T00:26:30;23.30;99.90
25877;DHT22;13692;47.480;19.216;2023-08-24T00:28:57;23.30;99.90
25877;DHT22;13692;47.480;19.216;2023-08-24T00:31:24;23.30;99.90
25877;DHT22;13692;47.480;19.216;2023-08-24T00:33:51;23.20;99.90
25877;DHT22;13692;47.480;19.216;2023-08-24T00:36:18;23.20;99.90
25877;DHT22;13692;47.480;19.216;2023-08-24T00:38:45;23.20;99.90
25877;DHT22;13692;47.480;19.216;2023-08-24T00:41:17;23.20;99.90
25877;DHT22;13692;47.480;19.216;2023-08-24T00:43:44;23.10;99.90
25877;DHT22;13692;47.480;19.216;2023-08-24T00:46:11;23.10;99.90
25877;DHT22;13692;47.480;19.216;2023-08-24T00:48:39;23.10;99.90
25877;DHT22;13692;47.480;19.216;2023-08-24T00:51:06;23.10;99.90
25877;DHT22;13692;47.480;19.216;2023-08-24T00:53:33;23.10;99.90
25877;DHT22;13692;47.480;19.216;2023-08-24T00:56:01;23.10;99.90
25877;DHT22;13692;47.480;19.216;2023-08-24T00:58:28;23.10;99.90
25877;DHT22;13692;47.480;19.216;2023-08-24T01:00:56;23.00;99.90
25877;DHT22;13692;47.480;19.216;2023-08-24T01:03:24;23.00;99.90
25877;DHT22;13692;47.480;19.216;2023-08-24T01:05:51;23.00;99.90
25877;DHT22;13692;47.480;19.216;2023-08-24T01:08:20;23.00;99.90
25877;DHT22;13692;47.480;19.216;2023-08-24T01:11:14;22.90;99.90
25877;DHT22;13692;47.480;19.216;2023-08-24T01:16:21;22.90;99.90
25877;DHT22;13692;47.480;19.216;2023-08-24T01:19:00;22.80;99.90
25877;DHT22;13692;47.480;19.216;2023-08-24T01:21:28;22.80;99.90
25877;DHT22;13692;47.480;19.216;2023-08-24T01:24:12;22.80;99.90
25877;DHT22;13692;47.480;19.216;2023-08-24T01:26:41;22.70;99.90
25877;DHT22;13692;47.480;19.216;2023-08-24T01:29:09;22.70;99.90
25877;DHT22;13692;47.480;19.216;2023-08-24T01:31:37;22.70;99.90
25877;DHT22;13692;47.480;19.216;2023-08-24T01:34:04;22.70;99.90
25877;DHT22;13692;47.480;19.216;2023-08-24T01:36:31;22.70;99.90
25877;DHT22;13692;47.480;19.216;2023-08-24T01:39:17;22.60;99.90
25877;DHT22;13692;47.480;19.216;2023-08-24T01:41:50;22.70;99.90
25877;DHT22;13692;47.480;19.216;2023-08-24T01:44:20;22.60;99.90
25877;DHT22;13692;47.480;19.216;2023-08-24T01:46:49;22.60;99.90
25877;DHT22;13692;47.480;19.216;2023-08-24T01:49:19;22.60;99.90
25877;DHT22;13692;47.480;19.216;2023-08-24T01:51:48;22.60;99.90
25877;DHT22;13692;47.480;19.216;2023-08-24T01:54:15;22.60;99.90
25877;DHT22;13692;47.480;19.216;2023-08-24T01:56:42;22.60;99.90
25877;DHT22;13692;47.480;19.216;2023-08-24T01:59:09;22.60;99.90
25877;DHT22;13692;47.480;19.216;2023-08-24T02:01:36;22.50;99.90
25877;DHT22;13692;47.480;19.216;2023-08-24T02:04:03;22.40;99.90
25877;DHT22;13692;47.480;19.216;2023-08-24T02:06:30;22.30;99.90
25877;DHT22;13692;47.480;19.216;2023-08-24T02:08:57;22.30;99.90
25877;DHT22;13692;47.480;19.216;2023-08-24T02:11:24;22.30;99.90
25877;DHT22;13692;47.480;19.216;2023-08-24T02:13:51;22.30;99.90
25877;DHT22;13692;47.480;19.216;2023-08-24T02:16:18;22.40;99.90
25877;DHT22;13692;47.480;19.216;2023-08-24T02:18:45;22.40;99.90
25877;DHT22;13692;47.480;19.216;2023-08-24T02:21:12;22.40;99.90
25877;DHT22;13692;47.480;19.216;2023-08-24T02:23:40;22.40;99.90
25877;DHT22;13692;47.480;19.216;2023-08-24T02:26:08;22.40;99.90
25877;DHT22;13692;47.480;19.216;2023-08-24T02:28:37;22.40;99.90
25877;DHT22;13692;47.480;19.216;2023-08-24T02:31:04;22.40;99.90
25877;DHT22;13692;47.480;19.216;2023-08-24T02:33:32;22.40;99.90
25877;DHT22;13692;47.480;19.216;2023-08-24T02:35:59;22.40;99.90
25877;DHT22;13692;47.480;19.216;2023-08-24T02:38:27;22.40;99.90
25877;DHT22;13692;47.480;19.216;2023-08-24T02:41:04;22.40;99.90
25877;DHT22;13692;47.480;19.216;2023-08-24T02:43:34;22.40;99.90
25877;DHT22;13692;47.480;19.216;2023-08-24T02:46:06;22.40;99.90
25877;DHT22;13692;47.480;19.216;2023-08-24T02:48:33;22.30;99.90
25877;DHT22;13692;47.480;19.216;2023-08-24T02:51:02;22.30;99.90
25877;DHT22;13692;47.480;19.216;2023-08-24T02:53:30;22.30;99.90
25877;DHT22;13692;47.480;19.216;2023-08-24T02:55:57;22.30;99.90
25877;DHT22;13692;47.480;19.216;2023-08-24T02:58:24;22.20;99.90
25877;DHT22;13692;47.480;19.216;2023-08-24T03:00:54;22.10;99.90
25877;DHT22;13692;47.480;19.216;2023-08-24T03:03:21;22.20;99.90
25877;DHT22;13692;47.480;19.216;2023-08-24T03:06:01;22.10;99.90
25877;DHT22;13692;47.480;19.216;2023-08-24T03:08:30;22.00;99.90
25877;DHT22;13692;47.480;19.216;2023-08-24T03:10:58;22.00;99.90
25877;DHT22;13692;47.480;19.216;2023-08-24T03:13:26;22.00;99.90
25877;DHT22;13692;47.480;19.216;2023-08-24T03:15:54;22.00;99.90
25877;DHT22;13692;47.480;19.216;2023-08-24T03:18:21;22.00;99.90
25877;DHT22;13692;47.480;19.216;2023-08-24T03:20:49;22.10;99.90
25877;DHT22;13692;47.480;19.216;2023-08-24T03:23:16;22.10;99.90
25877;DHT22;13692;47.480;19.216;2023-08-24T03:25:45;22.10;99.90
25877;DHT22;13692;47.480;19.216;2023-08-24T03:28:12;22.10;99.90
25877;DHT22;13692;47.480;19.216;2023-08-24T03:30:47;22.00;99.90
25877;DHT22;13692;47.480;19.216;2023-08-24T03:33:15;22.00;99.90
25877;DHT22;13692;47.480;19.216;2023-08-24T03:35:43;22.00;99.90
25877;DHT22;13692;47.480;19.216;2023-08-24T03:38:10;22.00;99.90
25877;DHT22;13692;47.480;19.216;2023-08-24T03:40:38;22.00;99.90
25877;DHT22;13692;47.480;19.216;2023-08-24T03:43:05;21.90;99.90
25877;DHT22;13692;47.480;19.216;2023-08-24T03:45:32;21.80;99.90
25877;DHT22;13692;47.480;19.216;2023-08-24T03:47:59;21.80;99.90
25877;DHT22;13692;47.480;19.216;2023-08-24T03:50:26;21.80;99.90
25877;DHT22;13692;47.480;19.216;2023-08-24T03:52:54;21.90;99.90
25877;DHT22;13692;47.480;19.216;2023-08-24T03:55:21;21.90;99.90
25877;DHT22;13692;47.480;19.216;2023-08-24T03:57:49;21.90;99.90
25877;DHT22;13692;47.480;19.216;2023-08-24T04:00:17;21.90;99.90
25877;DHT22;13692;47.480;19.216;2023-08-24T04:02:45;21.90;99.90
25877;DHT22;13692;47.480;19.216;2023-08-24T04:05:12;21.90;99.90
25877;DHT22;13692;47.480;19.216;2023-08-24T04:07:39;21.90;99.90
25877;DHT22;13692;47.480;19.216;2023-08-24T04:10:08;21.90;99.90
25877;DHT22;13692;47.480;19.216;2023-08-24T04:12:36;21.90;99.90
25877;DHT22;13692;47.480;19.216;2023-08-24T04:15:03;21.90;99.90
25877;DHT22;13692;47.480;19.216;2023-08-24T04:17:31;22.00;99.90
25877;DHT22;13692;47.480;19.216;2023-08-24T04:19:58;22.00;99.90
25877;DHT22;13692;47.480;19.216;2023-08-24T04:22:25;22.20;99.90
25877;DHT22;13692;47.480;19.216;2023-08-24T04:24:52;22.30;99.90
25877;DHT22;13692;47.480;19.216;2023-08-24T04:27:19;22.40;99.90
25877;DHT22;13692;47.480;19.216;2023-08-24T04:29:46;22.50;99.90
25877;DHT22;13692;47.480;19.216;2023-08-24T04:32:13;22.60;99.90
25877;DHT22;13692;47.480;19.216;2023-08-24T04:34:40;22.80;99.90
25877;DHT22;13692;47.480;19.216;2023-08-24T04:37:07;23.00;99.90
25877;DHT22;13692;47.480;19.216;2023-08-24T04:39:34;23.10;99.90
25877;DHT22;13692;47.480;19.216;2023-08-24T04:42:01;23.30;99.90
25877;DHT22;13692;47.480;19.216;2023-08-24T04:44:29;23.60;99.90
25877;DHT22;13692;47.480;19.216;2023-08-24T04:46:56;23.80;99.90
25877;DHT22;13692;47.480;19.216;2023-08-24T04:49:23;24.00;99.90
25877;DHT22;13692;47.480;19.216;2023-08-24T04:51:50;24.30;99.90
25877;DHT22;13692;47.480;19.216;2023-08-24T04:54:17;24.60;99.90
25877;DHT22;13692;47.480;19.216;2023-08-24T04:56:44;24.80;99.90
25877;DHT22;13692;47.480;19.216;2023-08-24T04:59:11;25.10;99.90
25877;DHT22;13692;47.480;19.216;2023-08-24T05:01:38;25.40;99.90
25877;DHT22;13692;47.480;19.216;2023-08-24T05:04:05;25.70;99.90
25877;DHT22;13692;47.480;19.216;2023-08-24T05:06:32;25.90;99.90
25877;DHT22;13692;47.480;19.216;2023-08-24T05:08:59;26.20;99.90
25877;DHT22;13692;47.480;19.216;2023-08-24T05:11:27;26.40;99.90
25877;DHT22;13692;47.480;19.216;2023-08-24T05:13:55;26.60;99.90
25877;DHT22;13692;47.480;19.216;2023-08-24T05:16:23;26.90;99.90
25877;DHT22;13692;47.480;19.216;2023-08-24T05:18:50;27.10;99.90
25877;DHT22;13692;47.480;19.216;2023-08-24T05:21:17;27.40;99.90
25877;DHT22;13692;47.480;19.216;2023-08-24T05:23:44;27.60;99.90
25877;DHT22;13692;47.480;19.216;2023-08-24T05:26:11;27.80;99.90
25877;DHT22;13692;47.480;19.216;2023-08-24T05:28:38;28.00;99.90
25877;DHT22;13692;47.480;19.216;2023-08-24T05:31:05;28.20;99.90
25877;DHT22;13692;47.480;19.216;2023-08-24T05:33:32;28.40;99.90
25877;DHT22;13692;47.480;19.216;2023-08-24T05:36:00;28.70;99.90
25877;DHT22;13692;47.480;19.216;2023-08-24T05:38:27;28.90;99.90
25877;DHT22;13692;47.480;19.216;2023-08-24T05:40:54;29.20;99.90
25877;DHT22;13692;47.480;19.216;2023-08-24T05:43:21;29.50;99.90
25877;DHT22;13692;47.480;19.216;2023-08-24T05:45:48;29.60;99.90
25877;DHT22;13692;47.480;19.216;2023-08-24T05:48:16;29.90;99.90
25877;DHT22;13692;47.480;19.216;2023-08-24T05:50:46;30.00;99.90
25877;DHT22;13692;47.480;19.216;2023-08-24T05:53:13;30.20;99.90
25877;DHT22;13692;47.480;19.216;2023-08-24T05:55:40;30.40;99.90
25877;DHT22;13692;47.480;19.216;2023-08-24T05:58:08;30.60;99.90
25877;DHT22;13692;47.480;19.216;2023-08-24T06:00:35;30.80;99.90
25877;DHT22;13692;47.480;19.216;2023-08-24T06:03:03;31.00;99.90
25877;DHT22;13692;47.480;19.216;2023-08-24T06:05:30;31.20;99.90
25877;DHT22;13692;47.480;19.216;2023-08-24T06:07:58;31.30;99.90
25877;DHT22;13692;47.480;19.216;2023-08-24T06:10:25;31.40;99.90
25877;DHT22;13692;47.480;19.216;2023-08-24T06:12:54;31.60;99.90
25877;DHT22;13692;47.480;19.216;2023-08-24T06:15:21;31.60;99.90
25877;DHT22;13692;47.480;19.216;2023-08-24T06:17:51;31.80;99.90
25877;DHT22;13692;47.480;19.216;2023-08-24T06:20:19;32.00;99.90
25877;DHT22;13692;47.480;19.216;2023-08-24T06:22:46;32.10;99.90
25877;DHT22;13692;47.480;19.216;2023-08-24T06:25:13;32.30;99.90
25877;DHT22;13692;47.480;19.216;2023-08-24T06:27:41;32.40;99.90
25877;DHT22;13692;47.480;19.216;2023-08-24T06:30:08;32.50;99.90
25877;DHT22;13692;47.480;19.216;2023-08-24T06:32:35;32.70;99.90
25877;DHT22;13692;47.480;19.216;2023-08-24T06:35:04;32.90;99.90
25877;DHT22;13692;47.480;19.216;2023-08-24T06:37:32;33.10;99.90
25877;DHT22;13692;47.480;19.216;2023-08-24T06:39:59;33.20;99.90
25877;DHT22;13692;47.480;19.216;2023-08-24T06:42:27;33.30;99.90
25877;DHT22;13692;47.480;19.216;2023-08-24T06:44:54;33.40;99.90
25877;DHT22;13692;47.480;19.216;2023-08-24T06:47:21;33.40;99.90
25877;DHT22;13692;47.480;19.216;2023-08-24T06:49:48;33.50;99.90
25877;DHT22;13692;47.480;19.216;2023-08-24T06:52:15;33.60;99.90
25877;DHT22;13692;47.480;19.216;2023-08-24T06:54:42;33.70;99.90
25877;DHT22;13692;47.480;19.216;2023-08-24T06:57:09;33.70;99.90
25877;DHT22;13692;47.480;19.216;2023-08-24T06:59:36;33.90;99.90
25877;DHT22;13692;47.480;19.216;2023-08-24T07:02:03;34.00;99.90
25877;DHT22;13692;47.480;19.216;2023-08-24T07:04:31;34.10;99.90
25877;DHT22;13692;47.480;19.216;2023-08-24T07:06:58;34.20;99.90
25877;DHT22;13692;47.480;19.216;2023-08-24T07:09:25;34.00;99.90
25877;DHT22;13692;47.480;19.216;2023-08-24T07:11:52;33.90;99.90
25877;DHT22;13692;47.480;19.216;2023-08-24T07:14:19;34.10;99.90
25877;DHT22;13692;47.480;19.216;2023-08-24T07:16:46;34.30;99.90
25877;DHT22;13692;47.480;19.216;2023-08-24T07:19:13;34.40;99.90
25877;DHT22;13692;47.480;19.216;2023-08-24T07:21:41;34.50;99.90
25877;DHT22;13692;47.480;19.216;2023-08-24T07:24:08;34.50;99.90
25877;DHT22;13692;47.480;19.216;2023-08-24T07:26:35;34.60;99.70
25877;DHT22;13692;47.480;19.216;2023-08-24T07:29:02;34.60;99.50
25877;DHT22;13692;47.480;19.216;2023-08-24T07:31:29;34.60;99.20
25877;DHT22;13692;47.480;19.216;2023-08-24T07:33:56;34.60;99.20
25877;DHT22;13692;47.480;19.216;2023-08-24T07:36:23;34.60;99.00
25877;DHT22;13692;47.480;19.216;2023-08-24T07:38:50;34.80;98.70
25877;DHT22;13692;47.480;19.216;2023-08-24T07:41:17;34.80;98.20
25877;DHT22;13692;47.480;19.216;2023-08-24T07:43:45;34.60;98.20
25877;DHT22;13692;47.480;19.216;2023-08-24T07:46:12;34.50;98.10
25877;DHT22;13692;47.480;19.216;2023-08-24T07:48:39;34.40;98.60
25877;DHT22;13692;47.480;19.216;2023-08-24T07:51:07;34.70;98.50
25877;DHT22;13692;47.480;19.216;2023-08-24T07:53:34;34.90;98.50
25877;DHT22;13692;47.480;19.216;2023-08-24T07:56:01;34.90;98.00
25877;DHT22;13692;47.480;19.216;2023-08-24T07:58:28;34.90;97.90
25877;DHT22;13692;47.480;19.216;2023-08-24T08:00:59;34.90;97.60
25877;DHT22;13692;47.480;19.216;2023-08-24T08:03:27;35.00;97.20
25877;DHT22;13692;47.480;19.216;2023-08-24T08:05:54;35.20;96.80
25877;DHT22;13692;47.480;19.216;2023-08-24T08:08:22;35.40;96.40
25877;DHT22;13692;47.480;19.216;2023-08-24T08:10:58;35.50;96.00
25877;DHT22;13692;47.480;19.216;2023-08-24T08:13:27;35.50;95.80
25877;DHT22;13692;47.480;19.216;2023-08-24T08:16:02;35.60;95.90
25877;DHT22;13692;47.480;19.216;2023-08-24T08:18:30;35.50;95.50
25877;DHT22;13692;47.480;19.216;2023-08-24T08:20:58;35.30;95.10
25877;DHT22;13692;47.480;19.216;2023-08-24T08:23:25;35.50;94.90
25877;DHT22;13692;47.480;19.216;2023-08-24T08:25:52;35.80;94.00
25877;DHT22;13692;47.480;19.216;2023-08-24T08:28:20;35.80;93.80
25877;DHT22;13692;47.480;19.216;2023-08-24T08:30:48;35.90;93.60
25877;DHT22;13692;47.480;19.216;2023-08-24T08:33:16;36.00;93.50
25877;DHT22;13692;47.480;19.216;2023-08-24T08:35:43;36.00;93.30
25877;DHT22;13692;47.480;19.216;2023-08-24T08:38:10;36.10;92.70
25877;DHT22;13692;47.480;19.216;2023-08-24T08:40:37;36.30;92.30
25877;DHT22;13692;47.480;19.216;2023-08-24T08:43:05;36.30;91.10
25877;DHT22;13692;47.480;19.216;2023-08-24T08:45:32;36.20;90.00
25877;DHT22;13692;47.480;19.216;2023-08-24T08:48:00;36.20;91.50
25877;DHT22;13692;47.480;19.216;2023-08-24T08:50:29;36.30;91.10
25877;DHT22;13692;47.480;19.216;2023-08-24T08:52:58;36.30;90.70
25877;DHT22;13692;47.480;19.216;2023-08-24T08:55:25;36.40;90.10
25877;DHT22;13692;47.480;19.216;2023-08-24T08:57:56;36.40;88.10
25877;DHT22;13692;47.480;19.216;2023-08-24T09:00:27;36.50;88.90
25877;DHT22;13692;47.480;19.216;2023-08-24T09:02:57;36.70;88.20
25877;DHT22;13692;47.480;19.216;2023-08-24T09:05:24;36.60;87.70
25877;DHT22;13692;47.480;19.216;2023-08-24T09:07:54;36.60;89.20
25877;DHT22;13692;47.480;19.216;2023-08-24T09:10:23;36.80;87.00
25877;DHT22;13692;47.480;19.216;2023-08-24T09:12:50;36.80;86.80
25877;DHT22;13692;47.480;19.216;2023-08-24T09:15:24;36.80;86.60
25877;DHT22;13692;47.480;19.216;2023-08-24T09:17:58;36.90;86.60
25877;DHT22;13692;47.480;19.216;2023-08-24T09:20:28;36.50;78.80
25877;DHT22;13692;47.480;19.216;2023-08-24T09:22:58;36.50;84.10
25877;DHT22;13692;47.480;19.216;2023-08-24T09:25:26;36.50;81.30
25877;DHT22;13692;47.480;19.216;2023-08-24T09:28:01;36.50;82.70
25877;DHT22;13692;47.480;19.216;2023-08-24T09:30:37;36.50;78.40
25877;DHT22;13692;47.480;19.216;2023-08-24T09:33:10;35.90;76.20
25877;DHT22;13692;47.480;19.216;2023-08-24T09:35:37;35.80;78.80
25877;DHT22;13692;47.480;19.216;2023-08-24T09:38:21;35.90;80.00
25877;DHT22;13692;47.480;19.216;2023-08-24T09:40:53;36.00;80.50
25877;DHT22;13692;47.480;19.216;2023-08-24T09:43:22;36.00;80.10
25877;DHT22;13692;47.480;19.216;2023-08-24T09:45:53;36.00;79.10
25877;DHT22;13692;47.480;19.216;2023-08-24T09:48:21;36.10;77.70
25877;DHT22;13692;47.480;19.216;2023-08-24T09:50:50;35.90;75.50
25877;DHT22;13692;47.480;19.216;2023-08-24T09:53:23;35.80;78.20
25877;DHT22;13692;47.480;19.216;2023-08-24T09:56:00;35.90;78.60
25877;DHT22;13692;47.480;19.216;2023-08-24T09:58:28;35.90;78.50
25877;DHT22;13692;47.480;19.216;2023-08-24T10:00:56;35.80;79.50
25877;DHT22;13692;47.480;19.216;2023-08-24T10:03:27;35.60;79.20
25877;DHT22;13692;47.480;19.216;2023-08-24T10:05:56;35.40;77.20
25877;DHT22;13692;47.480;19.216;2023-08-24T10:08:36;35.30;78.80
25877;DHT22;13692;47.480;19.216;2023-08-24T10:11:05;35.00;79.10
25877;DHT22;13692;47.480;19.216;2023-08-24T10:16:24;34.80;80.00
25877;DHT22;13692;47.480;19.216;2023-08-24T10:18:53;34.70;80.20
25877;DHT22;13692;47.480;19.216;2023-08-24T10:21:21;34.60;81.40
25877;DHT22;13692;47.480;19.216;2023-08-24T10:23:52;34.40;82.20
25877;DHT22;13692;47.480;19.216;2023-08-24T10:26:20;34.30;83.20
25877;DHT22;13692;47.480;19.216;2023-08-24T10:28:50;34.20;83.70
25877;DHT22;13692;47.480;19.216;2023-08-24T10:31:19;34.10;83.00
25877;DHT22;13692;47.480;19.216;2023-08-24T10:33:47;34.00;84.00
25877;DHT22;13692;47.480;19.216;2023-08-24T10:36:14;33.80;82.70
25877;DHT22;13692;47.480;19.216;2023-08-24T10:38:42;33.60;83.90
25877;DHT22;13692;47.480;19.216;2023-08-24T10:41:10;33.50;84.70
25877;DHT22;13692;47.480;19.216;2023-08-24T10:43:49;33.60;83.90
25877;DHT22;13692;47.480;19.216;2023-08-24T10:46:16;33.50;84.00
25877;DHT22;13692;47.480;19.216;2023-08-24T10:54:00;33.30;84.80
25877;DHT22;13692;47.480;19.216;2023-08-24T10:56:35;33.10;84.70
25877;DHT22;13692;47.480;19.216;2023-08-24T10:59:34;32.90;83.80
25877;DHT22;13692;47.480;19.216;2023-08-24T11:02:19;32.80;84.50
25877;DHT22;13692;47.480;19.216;2023-08-24T11:05:06;32.80;85.00
25877;DHT22;13692;47.480;19.216;2023-08-24T11:07:33;32.80;84.20
25877;DHT22;13692;47.480;19.216;2023-08-24T11:10:11;32.80;85.10
25877;DHT22;13692;47.480;19.216;2023-08-24T11:13:04;32.60;84.10
25877;DHT22;13692;47.480;19.216;2023-08-24T11:15:32;32.60;85.10
25877;DHT22;13692;47.480;19.216;2023-08-24T11:18:26;32.50;85.20
25877;DHT22;13692;47.480;19.216;2023-08-24T11:21:01;32.60;84.20
25877;DHT22;13692;47.480;19.216;2023-08-24T11:23:31;32.60;86.90
25877;DHT22;13692;47.480;19.216;2023-08-24T11:25:59;32.50;86.60
25877;DHT22;13692;47.480;19.216;2023-08-24T11:28:28;32.40;85.60
25877;DHT22;13692;47.480;19.216;2023-08-24T11:30:56;32.30;85.60
25877;DHT22;13692;47.480;19.216;2023-08-24T11:33:31;32.20;84.50
25877;DHT22;13692;47.480;19.216;2023-08-24T11:35:59;32.10;83.50
25877;DHT22;13692;47.480;19.216;2023-08-24T11:38:40;32.00;82.90
25877;DHT22;13692;47.480;19.216;2023-08-24T11:41:15;32.00;84.20
25877;DHT22;13692;47.480;19.216;2023-08-24T11:43:45;32.00;83.80
25877;DHT22;13692;47.480;19.216;2023-08-24T11:46:15;32.00;83.70
25877;DHT22;13692;47.480;19.216;2023-08-24T11:48:42;32.00;84.30
25877;DHT22;13692;47.480;19.216;2023-08-24T11:51:11;31.90;83.50
25877;DHT22;13692;47.480;19.216;2023-08-24T11:53:40;31.80;83.00
25877;DHT22;13692;47.480;19.216;2023-08-24T11:56:08;31.80;83.70
25877;DHT22;13692;47.480;19.216;2023-08-24T11:58:38;31.80;82.60
25877;DHT22;13692;47.480;19.216;2023-08-24T12:01:11;31.90;82.50
25877;DHT22;13692;47.480;19.216;2023-08-24T12:03:40;31.90;83.20
25877;DHT22;13692;47.480;19.216;2023-08-24T12:06:15;31.90;83.50
25877;DHT22;13692;47.480;19.216;2023-08-24T12:08:45;32.00;82.80
25877;DHT22;13692;47.480;19.216;2023-08-24T12:11:22;32.00;82.80
25877;DHT22;13692;47.480;19.216;2023-08-24T12:13:53;31.90;83.40
25877;DHT22;13692;47.480;19.216;2023-08-24T12:16:21;32.00;84.10
25877;DHT22;13692;47.480;19.216;2023-08-24T12:18:59;31.90;83.80
25877;DHT22;13692;47.480;19.216;2023-08-24T12:21:27;31.80;77.40
25877;DHT22;13692;47.480;19.216;2023-08-24T12:24:01;31.80;77.60
25877;DHT22;13692;47.480;19.216;2023-08-24T12:26:28;31.90;78.50
25877;DHT22;13692;47.480;19.216;2023-08-24T12:29:00;31.80;79.10
25877;DHT22;13692;47.480;19.216;2023-08-24T12:31:27;31.90;78.30
25877;DHT22;13692;47.480;19.216;2023-08-24T12:34:05;31.90;78.50
25877;DHT22;13692;47.480;19.216;2023-08-24T12:36:33;31.90;78.60
25877;DHT22;13692;47.480;19.216;2023-08-24T12:39:03;31.80;78.70
25877;DHT22;13692;47.480;19.216;2023-08-24T12:41:31;31.80;79.80
25877;DHT22;13692;47.480;19.216;2023-08-24T12:43:58;31.80;79.10
25877;DHT22;13692;47.480;19.216;2023-08-24T12:46:26;31.70;76.80
25877;DHT22;13692;47.480;19.216;2023-08-24T12:48:54;31.70;78.60
25877;DHT22;13692;47.480;19.216;2023-08-24T12:51:22;31.70;78.30
25877;DHT22;13692;47.480;19.216;2023-08-24T12:53:51;31.70;77.00
25877;DHT22;13692;47.480;19.216;2023-08-24T12:56:18;31.70;76.90
25877;DHT22;13692;47.480;19.216;2023-08-24T12:58:45;31.70;74.60
25877;DHT22;13692;47.480;19.216;2023-08-24T13:01:12;31.60;73.60
25877;DHT22;13692;47.480;19.216;2023-08-24T13:03:39;31.60;75.10
25877;DHT22;13692;47.480;19.216;2023-08-24T13:06:06;31.70;75.90
25877;DHT22;13692;47.480;19.216;2023-08-24T13:08:49;31.70;76.70
25877;DHT22;13692;47.480;19.216;2023-08-24T13:11:16;31.70;77.70
25877;DHT22;13692;47.480;19.216;2023-08-24T13:13:43;31.70;78.80
25877;DHT22;13692;47.480;19.216;2023-08-24T13:16:12;31.70;79.60
25877;DHT22;13692;47.480;19.216;2023-08-24T13:18:39;31.70;80.60
25877;DHT22;13692;47.480;19.216;2023-08-24T13:21:07;31.80;80.50
25877;DHT22;13692;47.480;19.216;2023-08-24T13:23:34;31.80;80.60
25877;DHT22;13692;47.480;19.216;2023-08-24T13:26:01;31.80;81.10
25877;DHT22;13692;47.480;19.216;2023-08-24T13:28:28;31.70;80.30
25877;DHT22;13692;47.480;19.216;2023-08-24T13:30:56;31.70;79.40
25877;DHT22;13692;47.480;19.216;2023-08-24T13:33:23;31.70;80.10
25877;DHT22;13692;47.480;19.216;2023-08-24T13:35:50;31.70;79.60
25877;DHT22;13692;47.480;19.216;2023-08-24T13:38:17;31.70;80.30
25877;DHT22;13692;47.480;19.216;2023-08-24T13:40:44;31.70;79.20
25877;DHT22;13692;47.480;19.216;2023-08-24T13:43:15;31.70;80.80
25877;DHT22;13692;47.480;19.216;2023-08-24T13:45:42;31.70;80.80
25877;DHT22;13692;47.480;19.216;2023-08-24T13:48:10;31.70;79.10
25877;DHT22;13692;47.480;19.216;2023-08-24T13:50:37;31.70;79.40
25877;DHT22;13692;47.480;19.216;2023-08-24T13:53:04;31.70;80.40
25877;DHT22;13692;47.480;19.216;2023-08-24T13:55:31;31.60;80.30
25877;DHT22;13692;47.480;19.216;2023-08-24T13:57:59;31.60;79.50
25877;DHT22;13692;47.480;19.216;2023-08-24T14:00:25;31.60;80.60
25877;DHT22;13692;47.480;19.216;2023-08-24T14:02:53;31.70;80.80
25877;DHT22;13692;47.480;19.216;2023-08-24T14:05:20;31.60;80.50
25877;DHT22;13692;47.480;19.216;2023-08-24T14:07:47;31.50;81.50
25877;DHT22;13692;47.480;19.216;2023-08-24T14:10:15;31.60;81.30
25877;DHT22;13692;47.480;19.216;2023-08-24T14:12:42;31.60;80.70
25877;DHT22;13692;47.480;19.216;2023-08-24T14:15:09;31.60;78.80
25877;DHT22;13692;47.480;19.216;2023-08-24T14:17:38;31.60;79.10
25877;DHT22;13692;47.480;19.216;2023-08-24T14:20:06;31.60;80.00
25877;DHT22;13692;47.480;19.216;2023-08-24T14:22:33;31.60;79.70
25877;DHT22;13692;47.480;19.216;2023-08-24T14:25:00;31.50;78.30
25877;DHT22;13692;47.480;19.216;2023-08-24T14:27:27;31.50;79.00
25877;DHT22;13692;47.480;19.216;2023-08-24T14:29:54;31.50;80.00
25877;DHT22;13692;47.480;19.216;2023-08-24T14:32:21;31.50;78.20
25877;DHT22;13692;47.480;19.216;2023-08-24T14:34:50;31.50;78.80
25877;DHT22;13692;47.480;19.216;2023-08-24T14:37:17;31.50;80.80
25877;DHT22;13692;47.480;19.216;2023-08-24T14:39:44;31.50;80.90
25877;DHT22;13692;47.480;19.216;2023-08-24T14:42:11;31.50;79.00
25877;DHT22;13692;47.480;19.216;2023-08-24T14:44:38;31.40;79.30
25877;DHT22;13692;47.480;19.216;2023-08-24T14:47:05;31.40;79.00
25877;DHT22;13692;47.480;19.216;2023-08-24T14:49:33;31.40;78.50
25877;DHT22;13692;47.480;19.216;2023-08-24T14:52:01;31.40;80.90
25877;DHT22;13692;47.480;19.216;2023-08-24T14:54:28;31.40;79.90
25877;DHT22;13692;47.480;19.216;2023-08-24T14:56:55;31.40;79.30
25877;DHT22;13692;47.480;19.216;2023-08-24T14:59:22;31.40;80.20
25877;DHT22;13692;47.480;19.216;2023-08-24T15:01:49;31.30;81.70
25877;DHT22;13692;47.480;19.216;2023-08-24T15:04:16;31.30;81.90
25877;DHT22;13692;47.480;19.216;2023-08-24T15:06:43;31.30;81.80
25877;DHT22;13692;47.480;19.216;2023-08-24T15:09:10;31.30;80.60
25877;DHT22;13692;47.480;19.216;2023-08-24T15:11:38;31.30;81.70
25877;DHT22;13692;47.480;19.216;2023-08-24T15:14:05;31.30;82.10
25877;DHT22;13692;47.480;19.216;2023-08-24T15:16:31;31.30;82.70
25877;DHT22;13692;47.480;19.216;2023-08-24T15:18:59;31.30;83.30
25877;DHT22;13692;47.480;19.216;2023-08-24T15:21:26;31.30;82.60
25877;DHT22;13692;47.480;19.216;2023-08-24T15:23:54;31.30;82.80
25877;DHT22;13692;47.480;19.216;2023-08-24T15:26:21;31.30;82.10
25877;DHT22;13692;47.480;19.216;2023-08-24T15:31:36;31.20;82.40
25877;DHT22;13692;47.480;19.216;2023-08-24T15:34:03;31.20;83.30
25877;DHT22;13692;47.480;19.216;2023-08-24T15:36:31;31.20;82.60
25877;DHT22;13692;47.480;19.216;2023-08-24T15:38:58;31.20;83.40